الصفحة الرئيسية
METAR-TAF:

METAR-TAF

مطار :

Alice Springs, أستراليا

دائرة عرض: 23-48S, خط طول: 133-53E, ارتفاع: 545 متر

مراقبة الطقس الحالي

تاريخ ووقت الإصدار 14ساعات و 22 دقيقة قبل الساعة 15:00UTC
ريح 6 عقدة من الجنوب الغربي
درجة الحرارة 32°درجة مئوية
الرطوبة 34%
ضغط 1006 hPa
الرؤية 10 كم أو أكثر

METAR: YBAS 201500Z AUTO 23006KT 9999 // NCD 32/14 Q1006

زمن: 14:52 (05:22 UTC)

توقعات

تاريخ ووقت الإصدار 18ساعات و 14 دقيقة قبل الساعة 11:08UTC
التوقعات صالحة من20 الساعة 12 UTC إلى 21 الساعة 12 UTC
ريح 3 عقدةمن اتجاهات متغيرة
الرؤية 10 كم أو أكثر
الغيوم لا تقل 1500 م ولا وجود لمزنة ركامية السحاب الأسود
من 21 الساعة 0000 UTC
ريح 7 عقدة من الجنوب الشرقي
الرؤية 10 كم أو أكثر
الغيوم لا تقل 1500 م ولا وجود لمزنة ركامية السحاب الأسود
نظرية الاحتمالات 30% :
مؤقت
من 21 الساعة 04 UTC إلى 21 الساعة 12 UTC
ريح 20 عقدةمن اتجاهات متغيرة تتزايد حتى 40 عقدة
الرؤية: 2000 متر
غيوم متفرقة على ارتفاع 6000 قدم, مزنة ركامية.
عاصفة رعدية, مطر

TAF: YBAS 201108Z 2012/2112 VRB03KT CAVOK FM210000 14007KT CAVOK PROB30 TEMPO 2104/2112 VRB20G40KT 2000 TSRA SCT060CB

أرصاد الطقس والتوقعات من أكثر من 4000 مطار (تقارير الطقس للمطار METAR والتنبؤ بالطقس بالمطارTAF).

المحطات المتاحة هي النقط الصفراء والحمراء على الخريطة.

حرك المؤشر فوق النقطة لمعرفة اسم المحطة.

ثم انقر لمعرفة أرصاد وتوقعات الطقس.

لتغيير الخارطة: اضغط على الأزرار الخضراء مع رمز الصليب الأسود للتكبير. على الزر الأخضر مع شرطة للتصغير، أو على الأسهم الخضراء للخرائط المجاورة.


METAR-TAF: